Time;durP1;ratioP1;P1;durP2;ratioP2;P2;SDS_P1;SDS_P2;PMS_P1;PMS_P2;Temp;Humidity;BMP_temperature;BMP_pressure;BME280_temperature;BME280_humidity;BME280_pressure;Samples;Min_cycle;Max_cycle;Signal;HPM_P1;HPM_P2
2023/10/17 00:08:13;;;;;;;17.70;9.65;;;;;;;4.19;73.23;100709.75;30970162;28;97113;-70
2023/10/17 00:23:15;;;;;;;20.98;11.15;;;;;;;4.36;73.30;100704.03;30968626;28;96862;-67
2023/10/17 00:38:15;;;;;;;19.98;11.13;;;;;;;4.58;72.97;100712.94;30967550;28;97155;-69
2023/10/17 00:53:16;;;;;;;19.25;11.38;;;;;;;4.62;72.69;100711.75;30965070;28;97132;-70
2023/10/17 01:08:16;;;;;;;17.65;11.52;;;;;;;4.38;72.64;100703.91;30965060;28;97933;-69
2023/10/17 01:23:17;;;;;;;18.77;10.75;;;;;;;4.08;72.76;100702.66;30963714;28;109565;-68
2023/10/17 01:38:17;;;;;;;20.58;9.52;;;;;;;3.65;72.99;100703.19;30963265;28;97244;-67
2023/10/17 01:53:18;;;;;;;20.55;11.77;;;;;;;3.38;73.25;100713.00;30960623;28;96675;-73
2023/10/17 02:08:21;;;;;;;16.65;10.95;;;;;;;3.10;74.05;100708.88;30973019;28;97114;-73
2023/10/17 02:23:25;;;;;;;19.20;11.00;;;;;;;2.99;74.14;100720.19;30979804;28;97067;-72
2023/10/17 02:38:26;;;;;;;22.00;11.03;;;;;;;2.96;74.71;100707.22;30977498;28;97121;-68
2023/10/17 02:53:31;;;;;;;23.50;11.57;;;;;;;2.77;74.67;100706.84;30975206;28;110197;-65
2023/10/17 03:08:37;;;;;;;21.15;13.20;;;;;;;2.56;74.83;100717.91;30974562;28;97148;-69
2023/10/17 03:23:38;;;;;;;26.65;14.57;;;;;;;2.54;75.46;100725.03;30970667;28;97146;-61
2023/10/17 03:38:41;;;;;;;21.27;12.77;;;;;;;2.56;75.18;100731.06;30969845;28;96754;-62
2023/10/17 03:53:48;;;;;;;24.53;13.07;;;;;;;2.79;75.82;100725.97;30969303;28;97030;-63
2023/10/17 04:08:48;;;;;;;23.73;12.85;;;;;;;3.11;75.46;100733.41;30966397;28;97383;-62
2023/10/17 04:23:49;;;;;;;21.40;12.07;;;;;;;3.34;75.66;100722.06;30961413;28;97610;-63
2023/10/17 04:39:11;;;;;;;21.55;12.32;;;;;;;3.52;75.45;100738.34;30964051;28;97430;-62
2023/10/17 06:40:53;;;;;;;23.52;12.45;;;;;;;5.66;74.55;100799.56;30946311;28;96980;-66
2023/10/17 06:55:58;;;;;;;18.13;11.27;;;;;;;6.31;73.94;100809.34;30966886;28;97248;-64
2023/10/17 07:11:09;;;;;;;16.63;11.30;;;;;;;6.87;72.87;100832.88;30971622;28;96884;-64
2023/10/17 07:41:37;;;;;;;22.00;12.13;;;;;;;8.05;71.04;100833.28;30963561;28;97383;-63
2023/10/17 07:56:38;;;;;;;19.63;11.23;;;;;;;8.47;70.38;100830.38;30964018;28;96753;-62
2023/10/17 08:11:38;;;;;;;21.77;11.65;;;;;;;9.43;69.95;100838.28;30964903;28;115001;-66
2023/10/17 08:26:40;;;;;;;17.35;9.73;;;;;;;10.39;68.18;100836.13;30962166;28;114108;-67
2023/10/17 08:41:40;;;;;;;17.33;10.60;;;;;;;11.55;66.31;100838.56;30960093;28;97417;-65
2023/10/17 08:56:44;;;;;;;15.32;7.78;;;;;;;11.87;64.59;100828.97;30960645;28;97706;-62
2023/10/17 09:12:01;;;;;;;15.03;7.73;;;;;;;13.66;63.08;100832.69;30961871;28;97137;-65
2023/10/17 09:27:12;;;;;;;20.60;11.37;;;;;;;15.39;59.93;100828.56;30959711;28;98601;-63
2023/10/17 09:42:14;;;;;;;16.03;9.30;;;;;;;15.56;57.55;100824.66;30955475;28;97653;-63
2023/10/17 09:57:20;;;;;;;14.87;7.97;;;;;;;16.76;54.84;100818.84;30956705;28;97318;-66
2023/10/17 10:12:20;;;;;;;10.53;5.77;;;;;;;18.38;51.87;100805.84;30955718;28;97128;-68
2023/10/17 10:27:24;;;;;;;8.75;5.68;;;;;;;20.45;47.94;100793.47;30962730;28;97055;-69
2023/10/17 10:42:24;;;;;;;8.60;4.90;;;;;;;23.85;41.76;100767.84;30972745;28;97528;-68
2023/10/17 10:57:28;;;;;;;7.20;4.18;;;;;;;29.51;32.72;100749.53;30970774;28;114216;-66
2023/10/17 11:12:29;;;;;;;4.63;3.50;;;;;;;30.99;27.55;100737.50;30973079;28;97184;-67
2023/10/17 11:27:32;;;;;;;8.32;2.95;;;;;;;30.71;24.19;100715.28;30967693;28;107556;-65
2023/10/17 11:42:35;;;;;;;4.67;2.90;;;;;;;23.10;30.12;100691.63;30966406;28;97655;-65
2023/10/17 11:57:36;;;;;;;7.07;3.43;;;;;;;20.95;31.23;100684.31;30968098;28;97124;-61
2023/10/17 12:12:37;;;;;;;6.90;3.53;;;;;;;18.58;33.83;100667.44;30966803;28;97135;-62
2023/10/17 12:27:40;;;;;;;6.55;3.30;;;;;;;16.55;36.12;100655.66;30958682;28;97159;-63
2023/10/17 12:42:41;;;;;;;5.60;3.20;;;;;;;15.59;38.28;100656.16;30959035;28;97413;-63
2023/10/17 12:57:43;;;;;;;6.77;3.10;;;;;;;15.27;39.03;100631.44;30959406;28;96868;-62
2023/10/17 13:12:44;;;;;;;5.53;3.10;;;;;;;14.81;39.88;100628.03;30960504;28;97248;-65
2023/10/17 13:27:45;;;;;;;7.32;3.33;;;;;;;13.66;40.96;100631.91;30959347;28;97228;-63
2023/10/17 13:42:46;;;;;;;6.27;2.97;;;;;;;13.01;42.23;100620.56;30957270;28;97535;-69
2023/10/17 13:57:47;;;;;;;5.70;3.23;;;;;;;12.74;43.04;100620.06;30961554;28;96833;-68
2023/10/17 14:12:47;;;;;;;4.35;2.38;;;;;;;12.53;42.72;100615.28;30976289;28;111504;-65
2023/10/17 14:27:47;;;;;;;9.98;3.65;;;;;;;13.12;42.43;100596.13;30975980;28;97276;-65
2023/10/17 14:42:48;;;;;;;6.13;2.92;;;;;;;12.56;43.11;100598.06;30974998;28;109958;-65
2023/10/17 14:57:48;;;;;;;6.57;3.72;;;;;;;12.05;44.17;100590.38;30974386;28;107406;-61
2023/10/17 15:12:52;;;;;;;5.90;3.72;;;;;;;11.43;45.95;100595.22;30972354;28;97401;-68
2023/10/17 15:27:55;;;;;;;8.40;3.80;;;;;;;10.90;46.85;100575.16;30970300;28;97858;-64
2023/10/17 15:42:55;;;;;;;12.17;5.90;;;;;;;10.53;48.99;100579.03;30968158;28;97210;-63
2023/10/17 15:57:56;;;;;;;21.40;9.63;;;;;;;10.19;49.57;100558.53;30967856;28;97788;-61
2023/10/17 16:12:56;;;;;;;11.63;6.80;;;;;;;9.83;50.97;100578.13;30965268;28;108088;-64
2023/10/17 16:27:56;;;;;;;19.98;9.77;;;;;;;9.55;51.96;100598.69;31032477;28;97226;-63
2023/10/17 16:42:57;;;;;;;16.00;7.68;;;;;;;9.34;52.65;100602.50;30958388;28;96918;-60
2023/10/17 16:57:57;;;;;;;10.23;4.75;;;;;;;9.14;53.04;100607.97;30960712;28;97332;-61
2023/10/17 17:13:02;;;;;;;10.15;5.85;;;;;;;8.95;53.59;100589.47;30947096;28;101236;-59
2023/10/17 17:28:03;;;;;;;14.53;6.10;;;;;;;8.67;54.40;100594.00;30957133;28;96918;-60
2023/10/17 17:43:04;;;;;;;14.23;7.50;;;;;;;8.69;55.64;100600.81;30953599;28;98461;-60
2023/10/17 17:58:07;;;;;;;19.30;8.27;;;;;;;8.66;56.53;100593.16;30957053;28;97199;-62
2023/10/17 18:13:07;;;;;;;12.67;7.23;;;;;;;8.60;57.77;100576.00;30955428;28;97064;-61
2023/10/17 18:28:10;;;;;;;12.03;7.00;;;;;;;8.55;58.55;100569.44;30955344;28;97188;-62
2023/10/17 18:43:11;;;;;;;17.53;8.23;;;;;;;8.45;58.99;100562.38;30955764;28;97309;-61
2023/10/17 18:58:12;;;;;;;17.05;8.75;;;;;;;8.37;59.41;100564.88;30974725;28;96667;-60
2023/10/17 19:13:12;;;;;;;18.80;8.37;;;;;;;8.38;60.12;100577.19;30973847;28;97285;-60
2023/10/17 19:28:13;;;;;;;15.57;7.93;;;;;;;8.37;60.81;100567.53;30971020;28;106761;-62
2023/10/17 19:43:14;;;;;;;15.80;7.57;;;;;;;8.27;60.89;100556.97;30970621;28;97371;-61
2023/10/17 19:58:15;;;;;;;11.38;7.57;;;;;;;8.14;61.80;100553.81;30969748;28;96799;-63
2023/10/17 20:13:15;;;;;;;19.67;10.63;;;;;;;7.80;61.57;100546.38;30968871;28;98392;-59
2023/10/17 20:28:15;;;;;;;16.85;10.85;;;;;;;7.21;62.65;100554.38;30968545;28;101359;-59
2023/10/17 20:43:16;;;;;;;20.13;11.27;;;;;;;6.62;63.94;100540.25;30964672;28;99295;-60
2023/10/17 20:58:16;;;;;;;22.23;12.52;;;;;;;6.22;64.75;100538.44;30962906;28;99531;-63
2023/10/17 21:13:16;;;;;;;25.13;13.20;;;;;;;5.84;66.03;100534.63;30961620;28;97417;-61
2023/10/17 21:28:17;;;;;;;27.50;13.90;;;;;;;5.51;67.12;100524.16;30962582;28;97291;-63
2023/10/17 21:43:17;;;;;;;30.00;13.75;;;;;;;5.17;67.58;100510.28;30961488;28;96687;-61
2023/10/17 21:58:18;;;;;;;29.88;14.20;;;;;;;4.90;68.23;100496.56;30960488;28;96690;-61
2023/10/17 22:13:18;;;;;;;49.08;16.90;;;;;;;4.71;69.01;100489.31;30959606;28;111154;-64
2023/10/17 22:28:18;;;;;;;23.20;14.07;;;;;;;4.39;69.41;100476.94;30977248;28;96870;-64
2023/10/17 22:43:19;;;;;;;27.85;14.57;;;;;;;4.17;69.78;100482.22;30978065;28;97828;-60
2023/10/17 22:58:19;;;;;;;29.10;15.25;;;;;;;3.97;69.97;100484.66;30977179;28;101410;-61
2023/10/17 23:13:19;;;;;;;32.38;15.63;;;;;;;3.77;70.80;100472.19;30977479;28;99928;-61
2023/10/17 23:28:20;;;;;;;26.02;14.10;;;;;;;3.59;71.40;100462.13;30974658;28;97428;-61
2023/10/17 23:43:20;;;;;;;38.25;17.15;;;;;;;3.43;71.38;100464.25;30973660;28;106563;-60
2023/10/17 23:58:23;;;;;;;24.73;15.38;;;;;;;3.21;71.75;100452.72;30971697;28;97523;-60
